createdAt,value
2023-09-14T00:04:20.217Z,94363.19
2023-09-14T00:09:22.454Z,94374.41
2023-09-14T00:14:24.598Z,94372.44
2023-09-14T00:19:28.178Z,94373.22
2023-09-14T00:24:30.231Z,94370.09
2023-09-14T00:29:32.326Z,94363.09
2023-09-14T00:34:34.609Z,94361.97
2023-09-14T00:39:37.055Z,94362.72
2023-09-14T00:44:39.125Z,94362.66
2023-09-14T00:49:43.169Z,94364.56
2023-09-14T00:54:45.400Z,94370.00
2023-09-14T00:59:48.227Z,94354.84
2023-09-14T01:04:50.460Z,94371.53
2023-09-14T01:09:52.961Z,94365.69
2023-09-14T01:15:00.919Z,94364.88
2023-09-14T01:20:21.476Z,94381.84
2023-09-14T01:25:35.606Z,94373.66
2023-09-14T01:30:41.617Z,94369.34
2023-09-14T01:35:52.651Z,94384.84
2023-09-14T01:40:55.437Z,94377.41
2023-09-14T01:45:58.513Z,94371.97
2023-09-14T01:51:00.504Z,94379.69
2023-09-14T01:56:02.647Z,94368.81
2023-09-14T02:01:07.126Z,94372.28
2023-09-14T02:06:09.504Z,94357.94
2023-09-14T02:11:13.315Z,94366.06
2023-09-14T02:16:15.582Z,94368.31
2023-09-14T02:21:18.630Z,94362.88
2023-09-14T02:26:23.777Z,94364.00
2023-09-14T02:31:27.415Z,94369.34
2023-09-14T02:36:29.789Z,94367.81
2023-09-14T02:41:33.468Z,94359.66
2023-09-14T02:46:36.064Z,94355.41
2023-09-14T02:51:38.407Z,94356.88
2023-09-14T02:56:41.811Z,94357.66
2023-09-14T03:01:46.075Z,94351.84
2023-09-14T03:06:49.184Z,94341.69
2023-09-14T03:11:51.633Z,94353.72
2023-09-14T03:16:53.984Z,94350.63
2023-09-14T03:21:56.304Z,94354.13
2023-09-14T03:26:58.713Z,94358.03
2023-09-14T03:32:02.069Z,94346.03
2023-09-14T03:37:05.042Z,94344.16
2023-09-14T03:42:11.703Z,94329.03
2023-09-14T03:47:13.949Z,94335.72
2023-09-14T03:52:16.380Z,94338.00
2023-09-14T03:57:19.356Z,94339.22
2023-09-14T04:02:21.770Z,94344.63
2023-09-14T04:07:23.777Z,94345.38
2023-09-14T04:12:26.042Z,94348.50
2023-09-14T04:17:29.603Z,94357.75
2023-09-14T04:22:32.268Z,94349.31
2023-09-14T04:27:34.813Z,94348.88
2023-09-14T04:32:37.060Z,94350.47
2023-09-14T04:37:39.595Z,94350.06
2023-09-14T04:42:42.105Z,94350.84
2023-09-14T04:47:44.567Z,94352.41
2023-09-14T04:52:47.078Z,94352.41
2023-09-14T04:57:49.181Z,94354.00
2023-09-14T05:02:51.361Z,94331.94
2023-09-14T05:07:53.671Z,94352.13
2023-09-14T05:12:56.227Z,94352.91
2023-09-14T05:17:59.119Z,94347.88
2023-09-14T05:23:02.258Z,94350.59
2023-09-14T05:28:05.702Z,94356.03
2023-09-14T05:33:08.944Z,94345.63
2023-09-14T05:38:12.083Z,94344.88
2023-09-14T05:43:14.110Z,94351.38
2023-09-14T05:48:16.435Z,94346.72
2023-09-14T05:53:18.819Z,94346.38
2023-09-14T05:58:20.985Z,94357.13
2023-09-14T06:03:23.249Z,94368.00
2023-09-14T06:08:26.012Z,94371.91
2023-09-14T06:13:30.140Z,94376.94
2023-09-14T06:18:32.466Z,94383.06
2023-09-14T06:23:34.726Z,94383.81
2023-09-14T06:28:36.791Z,94400.13
2023-09-14T06:33:39.009Z,94401.25
2023-09-14T06:38:41.477Z,94412.84
2023-09-14T06:43:46.176Z,94407.81
2023-09-14T06:48:48.386Z,94421.72
2023-09-14T06:53:52.837Z,94422.88
2023-09-14T06:58:55.257Z,94423.63
2023-09-14T07:03:57.854Z,94422.47
2023-09-14T07:09:00.500Z,94417.31
2023-09-14T07:14:04.053Z,94423.31
2023-09-14T07:19:06.550Z,94425.31
2023-09-14T07:24:09.583Z,94424.59
2023-09-14T07:29:11.807Z,94429.19
2023-09-14T07:34:15.103Z,94429.94
2023-09-14T07:39:17.709Z,94440.81
2023-09-14T07:44:20.673Z,94427.69
2023-09-14T07:49:22.903Z,94433.13
2023-09-14T07:54:25.213Z,94433.59
2023-09-14T07:59:29.372Z,94431.78
2023-09-14T08:04:31.757Z,94431.03
2023-09-14T08:09:33.963Z,94424.84
2023-09-14T08:14:36.352Z,94434.56
2023-09-14T08:19:38.702Z,94433.84
2023-09-14T08:24:40.788Z,94433.53
2023-09-14T08:29:44.840Z,94436.72
2023-09-14T08:34:46.895Z,94443.31
2023-09-14T08:39:49.119Z,94452.59
2023-09-14T08:44:52.135Z,94442.91
2023-09-14T08:49:54.811Z,94455.69
2023-09-14T08:54:57.745Z,94461.88
2023-09-14T09:00:01.098Z,94459.59
2023-09-14T09:05:04.137Z,94464.25
2023-09-14T09:10:09.179Z,94456.56
2023-09-14T09:15:11.679Z,94455.47
2023-09-14T09:20:21.127Z,94459.09
2023-09-14T09:25:23.939Z,94461.44
2023-09-14T09:30:37.497Z,94456.09
2023-09-14T09:35:39.884Z,94439.47
2023-09-14T09:40:44.977Z,94458.94
2023-09-14T09:45:48.620Z,94452.75
2023-09-14T09:50:51.052Z,94447.72
2023-09-14T09:55:53.430Z,94444.63
2023-09-14T10:01:01.143Z,94436.06
2023-09-14T10:06:03.613Z,94431.63
2023-09-14T10:11:06.563Z,94427.53
2023-09-14T10:16:10.001Z,94426.53
2023-09-14T10:21:12.750Z,94422.25
2023-09-14T10:26:15.449Z,94422.44
2023-09-14T10:31:18.390Z,94412.78
2023-09-14T10:36:20.773Z,94404.16
2023-09-14T10:41:23.696Z,94411.34
2023-09-14T10:46:30.279Z,94392.56
2023-09-14T10:51:32.708Z,94392.19
2023-09-14T10:56:35.737Z,94377.75
2023-09-14T11:01:54.794Z,94373.81
2023-09-14T11:06:59.387Z,94373.78
2023-09-14T11:12:21.058Z,94376.94
2023-09-14T11:17:26.375Z,94350.88
2023-09-14T11:22:29.185Z,94358.09
2023-09-14T11:27:33.941Z,94347.84
2023-09-14T11:32:41.382Z,94353.16
2023-09-14T11:37:45.983Z,94341.44
2023-09-14T11:43:40.106Z,94324.94
2023-09-14T11:53:51.986Z,94312.97
2023-09-14T11:58:55.020Z,94308.41
2023-09-14T12:03:58.931Z,94297.94
2023-09-14T12:09:01.436Z,94294.50
2023-09-14T12:14:04.602Z,94281.41
2023-09-14T12:19:13.439Z,94276.16
2023-09-14T12:24:15.398Z,94258.56
2023-09-14T12:29:17.665Z,94267.88
2023-09-14T12:34:20.053Z,94257.16
2023-09-14T12:39:22.860Z,94248.47
2023-09-14T12:44:25.521Z,94248.25
2023-09-14T12:49:27.778Z,94237.41
2023-09-14T12:54:30.690Z,94229.53
2023-09-14T12:59:32.808Z,94215.03
2023-09-14T13:04:37.048Z,94198.94
2023-09-14T13:09:39.061Z,94196.41
2023-09-14T13:14:45.152Z,94185.97
2023-09-14T13:19:47.143Z,94174.53
2023-09-14T13:24:49.277Z,94177.50
2023-09-14T13:29:51.470Z,94172.03
2023-09-14T13:34:53.740Z,94170.78
2023-09-14T13:39:55.992Z,94159.53
2023-09-14T13:44:58.070Z,94164.72
2023-09-14T13:50:00.193Z,94145.66
2023-09-14T13:55:03.357Z,94147.69
2023-09-14T14:00:11.959Z,94149.03
2023-09-14T14:05:14.714Z,94144.19
2023-09-14T14:10:16.798Z,94127.78
2023-09-14T14:15:18.934Z,94122.31
2023-09-14T14:20:22.081Z,94112.63
2023-09-14T14:25:24.232Z,94117.19
2023-09-14T14:30:26.287Z,94101.16
2023-09-14T14:35:28.263Z,94098.72
2023-09-14T14:41:06.238Z,94089.53
2023-09-14T14:46:00.150Z,94079.97
2023-09-14T14:51:02.504Z,94085.94
2023-09-14T14:56:04.838Z,94054.75
2023-09-14T15:01:11.618Z,94065.59
2023-09-14T15:06:13.732Z,94053.53
2023-09-14T15:11:15.972Z,94055.31
2023-09-14T15:16:17.989Z,94050.38
2023-09-14T15:21:20.024Z,94037.72
2023-09-14T15:26:22.611Z,94030.00
2023-09-14T15:31:24.973Z,94031.31
2023-09-14T15:36:27.025Z,94026.59
2023-09-14T15:41:28.999Z,94011.50
2023-09-14T15:46:31.238Z,93998.09
2023-09-14T15:51:33.364Z,94012.19
2023-09-14T15:56:35.809Z,94007.97
2023-09-14T16:01:37.796Z,94011.09
2023-09-14T16:06:40.026Z,94004.91
2023-09-14T16:11:42.624Z,94007.97
2023-09-14T16:16:46.104Z,94000.63
2023-09-14T16:21:48.651Z,93994.00
2023-09-14T16:26:51.552Z,93981.66
2023-09-14T16:31:53.622Z,93979.72
2023-09-14T16:36:57.734Z,93975.88
2023-09-14T16:42:00.133Z,93972.00
2023-09-14T16:47:02.368Z,93974.16
2023-09-14T16:52:04.669Z,93973.09
2023-09-14T16:57:08.072Z,93962.75
2023-09-14T17:02:12.416Z,93959.38
2023-09-14T17:07:15.689Z,93952.38
2023-09-14T17:12:17.892Z,93963.75
2023-09-14T17:17:21.306Z,93960.03
2023-09-14T17:22:25.002Z,93953.91
2023-09-14T17:27:27.170Z,93955.94
2023-09-14T17:32:30.549Z,93961.47
2023-09-14T17:37:33.669Z,93963.97
2023-09-14T17:42:35.674Z,93954.34
2023-09-14T17:47:40.894Z,93953.91
2023-09-14T17:52:44.006Z,93951.38
2023-09-14T17:57:46.716Z,93946.56
2023-09-14T18:02:49.584Z,93945.47
2023-09-14T18:07:52.628Z,93964.47
2023-09-14T18:12:54.656Z,93968.88
2023-09-14T18:17:57.021Z,93959.69
2023-09-14T18:22:59.085Z,93964.91
2023-09-14T18:28:01.249Z,93963.88
2023-09-14T18:33:04.557Z,93963.22
2023-09-14T18:38:06.843Z,93959.03
2023-09-14T18:43:09.161Z,93963.81
2023-09-14T18:48:13.751Z,93964.22
2023-09-14T18:53:17.222Z,93979.38
2023-09-14T18:58:40.273Z,93978.97
2023-09-14T19:03:42.983Z,93991.88
2023-09-14T19:08:45.339Z,93989.88
2023-09-14T19:13:49.076Z,94001.66
2023-09-14T19:18:51.521Z,94002.44
2023-09-14T19:23:53.526Z,93997.81
2023-09-14T19:28:55.620Z,94020.38
2023-09-14T19:33:57.892Z,94021.19
2023-09-14T19:39:00.031Z,94010.81
2023-09-14T19:44:02.184Z,94010.94
2023-09-14T19:49:05.014Z,94020.72
2023-09-14T19:54:07.850Z,94023.22
2023-09-14T19:59:10.215Z,94034.88
2023-09-14T20:04:12.381Z,94035.00
2023-09-14T20:09:14.577Z,94034.28
2023-09-14T20:14:17.042Z,94037.06
2023-09-14T20:19:19.129Z,94046.44
2023-09-14T20:24:21.461Z,94046.00
2023-09-14T20:29:23.608Z,94052.66
2023-09-14T20:34:26.109Z,94044.50
2023-09-14T20:39:30.030Z,94048.06
2023-09-14T20:44:32.243Z,94033.34
2023-09-14T20:49:34.382Z,94039.13
2023-09-14T20:54:36.387Z,94031.38
2023-09-14T20:59:38.808Z,94029.53
2023-09-14T21:04:40.839Z,94023.38
2023-09-14T21:09:43.135Z,94026.94
2023-09-14T21:14:46.238Z,94035.09
2023-09-14T21:19:56.004Z,94034.72
2023-09-14T21:25:00.430Z,94038.19
2023-09-14T21:30:02.725Z,94019.34
2023-09-14T21:35:06.866Z,94022.44
2023-09-14T21:40:10.053Z,94028.66
2023-09-14T21:45:12.394Z,94021.72
2023-09-14T21:50:15.614Z,94025.56
2023-09-14T21:55:17.559Z,94020.19
2023-09-14T22:00:25.795Z,94041.56
2023-09-14T22:05:27.882Z,94039.19
2023-09-14T22:10:30.598Z,94031.84
2023-09-14T22:15:34.638Z,94030.28
2023-09-14T22:20:39.785Z,94031.84
2023-09-14T22:25:42.548Z,94035.72
2023-09-14T22:30:44.830Z,94021.31
2023-09-14T22:35:47.047Z,94027.50
2023-09-14T22:40:50.658Z,94025.19
2023-09-14T22:45:52.703Z,94023.63
2023-09-14T22:51:18.431Z,94039.91
2023-09-14T22:56:20.566Z,94030.19
2023-09-14T23:01:27.502Z,94019.34
2023-09-14T23:06:29.864Z,94020.84
2023-09-14T23:11:41.113Z,94003.81
2023-09-14T23:16:46.182Z,94010.38
2023-09-14T23:21:51.743Z,93993.75
2023-09-14T23:26:54.161Z,93987.56
2023-09-14T23:31:59.228Z,93997.31
2023-09-14T23:37:01.527Z,94001.25
2023-09-14T23:42:03.893Z,93993.88
2023-09-14T23:47:06.957Z,93990.44
2023-09-14T23:52:09.663Z,94001.00
2023-09-14T23:57:11.992Z,94013.81
